createdAt,value
2023-04-26T00:02:05.352Z,3.47
2023-04-26T00:04:34.376Z,5.43
2023-04-26T00:07:01.951Z,5.32
2023-04-26T00:09:29.706Z,4.00
2023-04-26T00:11:57.789Z,5.07
2023-04-26T00:14:25.352Z,2.87
2023-04-26T00:16:52.788Z,2.30
2023-04-26T00:19:21.563Z,1.57
2023-04-26T00:21:48.868Z,1.70
2023-04-26T00:24:16.439Z,1.50
2023-04-26T00:26:44.033Z,1.23
2023-04-26T00:29:11.577Z,1.50
2023-04-26T00:31:40.036Z,1.30
2023-04-26T00:34:07.665Z,1.20
2023-04-26T00:36:35.004Z,1.50
2023-04-26T00:39:03.032Z,1.40
2023-04-26T00:41:30.804Z,1.70
2023-04-26T00:43:58.183Z,1.20
2023-04-26T00:46:26.751Z,1.30
2023-04-26T00:48:55.308Z,1.52
2023-04-26T00:51:22.672Z,2.20
2023-04-26T00:53:49.900Z,1.80
2023-04-26T00:56:17.692Z,2.50
2023-04-26T00:58:46.560Z,2.75
2023-04-26T01:01:14.154Z,3.00
2023-04-26T01:03:43.049Z,3.57
2023-04-26T01:06:11.891Z,3.67
2023-04-26T01:08:39.541Z,3.67
2023-04-26T01:11:07.622Z,3.97
2023-04-26T01:13:38.279Z,4.12
2023-04-26T01:16:08.539Z,4.47
2023-04-26T01:18:36.432Z,4.00
2023-04-26T01:21:05.204Z,4.07
2023-04-26T01:23:32.469Z,3.33
2023-04-26T01:26:00.024Z,3.90
2023-04-26T01:28:27.287Z,4.47
2023-04-26T01:30:55.079Z,4.87
2023-04-26T01:33:23.281Z,3.90
2023-04-26T01:35:52.367Z,4.75
2023-04-26T01:38:20.345Z,8.33
2023-04-26T01:40:48.042Z,6.78
2023-04-26T01:43:15.866Z,5.30
2023-04-26T01:45:49.617Z,4.73
2023-04-26T01:48:29.257Z,4.77
2023-04-26T01:50:56.667Z,5.20
2023-04-26T01:53:23.947Z,5.03
2023-04-26T01:55:51.663Z,4.20
2023-04-26T01:58:19.034Z,2.93
2023-04-26T02:00:46.527Z,2.93
2023-04-26T02:03:14.370Z,2.97
2023-04-26T02:05:41.803Z,3.50
2023-04-26T02:08:09.163Z,3.53
2023-04-26T02:10:37.208Z,3.40
2023-04-26T02:13:04.522Z,3.40
2023-04-26T02:15:31.864Z,3.23
2023-04-26T02:18:00.700Z,3.30
2023-04-26T02:20:28.203Z,2.83
2023-04-26T02:22:55.758Z,3.33
2023-04-26T02:25:23.398Z,2.70
2023-04-26T02:27:51.001Z,2.60
2023-04-26T02:30:18.334Z,3.00
2023-04-26T02:32:45.719Z,3.40
2023-04-26T02:35:13.473Z,3.60
2023-04-26T02:37:42.068Z,2.55
2023-04-26T02:40:11.169Z,2.93
2023-04-26T02:42:47.360Z,3.07
2023-04-26T02:45:15.191Z,3.10
2023-04-26T02:47:43.181Z,3.90
2023-04-26T02:50:11.286Z,4.30
2023-04-26T02:52:38.679Z,6.80
2023-04-26T02:55:06.956Z,4.43
2023-04-26T02:57:34.447Z,4.03
2023-04-26T03:00:02.112Z,3.57
2023-04-26T03:02:30.230Z,3.17
2023-04-26T03:04:57.768Z,3.23
2023-04-26T03:07:26.665Z,3.10
2023-04-26T03:09:54.386Z,4.87
2023-04-26T03:12:21.776Z,5.37
2023-04-26T03:14:49.165Z,5.53
2023-04-26T03:17:17.793Z,4.80
2023-04-26T03:19:45.268Z,5.10
2023-04-26T03:22:16.367Z,5.63
2023-04-26T03:24:45.579Z,5.17
2023-04-26T03:27:13.718Z,6.93
2023-04-26T03:29:43.455Z,5.77
2023-04-26T03:32:12.628Z,6.90
2023-04-26T03:34:40.361Z,6.35
2023-04-26T03:37:08.068Z,6.40
2023-04-26T03:39:36.840Z,6.47
2023-04-26T03:42:04.276Z,5.33
2023-04-26T03:44:31.639Z,6.17
2023-04-26T03:47:01.090Z,8.37
2023-04-26T03:49:28.523Z,6.80
2023-04-26T03:51:56.300Z,7.20
2023-04-26T03:54:24.130Z,4.90
2023-04-26T03:56:52.126Z,5.60
2023-04-26T03:59:20.159Z,5.97
2023-04-26T04:01:48.538Z,5.95
2023-04-26T04:04:16.503Z,6.83
2023-04-26T04:06:44.586Z,7.37
2023-04-26T04:09:12.116Z,7.37
2023-04-26T04:11:39.870Z,7.03
2023-04-26T04:14:07.721Z,8.00
2023-04-26T04:16:35.205Z,6.80
2023-04-26T04:19:04.006Z,5.55
2023-04-26T04:21:32.236Z,5.83
2023-04-26T04:24:00.196Z,4.23
2023-04-26T04:26:30.623Z,4.37
2023-04-26T04:29:00.858Z,4.37
2023-04-26T04:31:28.850Z,4.13
2023-04-26T04:33:56.382Z,4.63
2023-04-26T04:36:24.187Z,4.53
2023-04-26T04:38:54.167Z,3.78
2023-04-26T04:41:22.862Z,3.63
2023-04-26T04:43:51.507Z,4.35
2023-04-26T04:46:20.009Z,4.07
2023-04-26T04:48:52.532Z,10.13
2023-04-26T04:51:21.801Z,6.13
2023-04-26T04:53:49.189Z,4.37
2023-04-26T04:56:18.571Z,3.83
2023-04-26T04:58:46.668Z,3.70
2023-04-26T05:01:15.520Z,3.15
2023-04-26T05:03:43.973Z,3.90
2023-04-26T05:06:12.315Z,4.00
2023-04-26T05:08:39.782Z,3.63
2023-04-26T05:11:08.396Z,3.62
2023-04-26T05:13:36.905Z,3.40
2023-04-26T05:16:05.606Z,5.10
2023-04-26T05:18:33.470Z,3.73
2023-04-26T05:21:01.499Z,3.37
2023-04-26T05:23:30.704Z,3.37
2023-04-26T05:26:03.989Z,2.58
2023-04-26T05:28:34.405Z,2.47
2023-04-26T05:31:02.653Z,2.90
2023-04-26T05:33:31.213Z,3.00
2023-04-26T05:36:00.389Z,2.83
2023-04-26T05:38:28.245Z,3.55
2023-04-26T05:40:56.099Z,4.77
2023-04-26T05:43:24.728Z,3.87
2023-04-26T05:45:56.581Z,4.10
2023-04-26T05:48:25.559Z,4.43
2023-04-26T05:50:53.337Z,3.97
2023-04-26T05:53:21.007Z,4.90
2023-04-26T05:55:49.130Z,4.60
2023-04-26T05:58:16.663Z,4.30
2023-04-26T06:00:47.809Z,4.23
2023-04-26T06:03:19.844Z,4.27
2023-04-26T06:05:48.063Z,4.72
2023-04-26T06:08:17.032Z,5.37
2023-04-26T06:10:44.592Z,4.57
2023-04-26T06:13:12.654Z,6.10
2023-04-26T06:15:40.494Z,5.68
2023-04-26T06:18:08.985Z,5.73
2023-04-26T06:20:36.447Z,6.10
2023-04-26T06:23:06.804Z,6.60
2023-04-26T06:25:34.655Z,6.20
2023-04-26T06:28:02.335Z,6.47
2023-04-26T06:30:30.277Z,7.30
2023-04-26T06:33:00.423Z,8.67
2023-04-26T06:35:28.415Z,8.70
2023-04-26T06:37:56.153Z,9.57
2023-04-26T06:40:23.841Z,9.70
2023-04-26T06:42:51.286Z,7.67
2023-04-26T06:45:19.781Z,6.87
2023-04-26T06:47:47.218Z,6.53
2023-04-26T06:50:15.407Z,6.70
2023-04-26T06:52:43.212Z,5.67
2023-04-26T06:55:11.138Z,6.37
2023-04-26T06:57:39.447Z,6.03
2023-04-26T07:00:13.122Z,6.73
2023-04-26T07:02:40.674Z,6.93
2023-04-26T07:05:09.047Z,6.87
2023-04-26T07:07:36.480Z,7.93
2023-04-26T07:10:04.726Z,7.37
2023-04-26T07:12:32.778Z,8.82
2023-04-26T07:15:01.611Z,7.43
2023-04-26T07:17:29.229Z,8.73
2023-04-26T07:19:57.608Z,6.70
2023-04-26T07:22:26.106Z,5.60
2023-04-26T07:24:53.744Z,6.40
2023-04-26T07:27:21.903Z,5.53
2023-04-26T07:29:49.428Z,5.47
2023-04-26T07:32:16.989Z,5.37
2023-04-26T07:34:45.332Z,5.60
2023-04-26T07:37:12.821Z,5.97
2023-04-26T07:39:41.129Z,4.77
2023-04-26T07:42:09.488Z,4.72
2023-04-26T07:44:37.232Z,4.13
2023-04-26T07:47:04.854Z,4.10
2023-04-26T07:49:32.722Z,3.80
2023-04-26T07:52:02.601Z,3.97
2023-04-26T07:54:30.354Z,3.43
2023-04-26T07:56:58.650Z,3.30
2023-04-26T07:59:26.292Z,3.17
2023-04-26T08:01:53.890Z,3.67
2023-04-26T08:04:32.933Z,3.53
2023-04-26T08:07:02.416Z,3.55
2023-04-26T08:09:31.172Z,4.40
2023-04-26T08:11:58.714Z,4.07
2023-04-26T08:14:26.224Z,5.40
2023-04-26T08:16:54.899Z,19.15
2023-04-26T08:19:22.764Z,4.33
2023-04-26T08:21:50.224Z,3.93
2023-04-26T08:24:18.061Z,4.80
2023-04-26T08:26:46.521Z,3.57
2023-04-26T08:29:15.220Z,3.17
2023-04-26T08:31:43.436Z,4.25
2023-04-26T08:34:11.480Z,3.90
2023-04-26T08:36:42.721Z,4.07
2023-04-26T08:39:12.756Z,4.00
2023-04-26T08:44:12.054Z,4.63
2023-04-26T08:46:48.159Z,3.93
2023-04-26T08:49:28.712Z,3.87
2023-04-26T08:51:58.177Z,4.63
2023-04-26T08:54:26.343Z,7.07
2023-04-26T08:56:56.510Z,4.10
2023-04-26T08:59:24.583Z,3.50
2023-04-26T09:01:53.752Z,3.58
2023-04-26T09:04:21.500Z,4.35
2023-04-26T09:06:50.222Z,4.70
2023-04-26T09:11:59.947Z,3.47
2023-04-26T09:14:28.376Z,4.10
2023-04-26T09:16:56.071Z,3.43
2023-04-26T09:19:42.956Z,3.20
2023-04-26T09:22:12.115Z,3.20
2023-04-26T09:24:51.081Z,3.67
2023-04-26T09:27:20.212Z,4.67
2023-04-26T09:30:09.975Z,4.45
2023-04-26T09:32:46.363Z,4.03
2023-04-26T09:35:29.178Z,6.63
2023-04-26T09:38:11.778Z,3.30
2023-04-26T09:40:50.854Z,3.93
2023-04-26T09:43:20.925Z,3.22
2023-04-26T09:45:53.656Z,3.77
2023-04-26T09:48:30.971Z,3.07
2023-04-26T09:51:18.691Z,3.23
2023-04-26T09:53:48.516Z,3.80
2023-04-26T09:56:19.142Z,2.83
2023-04-26T09:58:46.896Z,2.23
2023-04-26T10:01:19.341Z,2.70
2023-04-26T10:03:47.860Z,3.07
2023-04-26T10:06:16.819Z,2.72
2023-04-26T10:11:14.134Z,2.75
2023-04-26T10:13:45.171Z,3.22
2023-04-26T10:16:15.283Z,3.33
2023-04-26T10:18:44.878Z,3.73
2023-04-26T10:21:31.745Z,3.25
2023-04-26T10:24:00.503Z,2.40
2023-04-26T10:26:54.979Z,2.90
2023-04-26T10:29:23.688Z,3.70
2023-04-26T10:34:31.486Z,3.93
2023-04-26T10:37:20.382Z,2.73
2023-04-26T10:39:49.202Z,3.20
2023-04-26T10:42:25.529Z,3.07
2023-04-26T10:45:18.984Z,2.50
2023-04-26T10:48:11.402Z,2.90
2023-04-26T10:51:13.224Z,3.00
2023-04-26T10:53:47.081Z,2.30
2023-04-26T10:56:26.467Z,2.60
2023-04-26T11:01:52.879Z,3.00
2023-04-26T11:04:20.950Z,2.90
2023-04-26T11:06:53.012Z,3.60
2023-04-26T11:09:40.991Z,3.50
2023-04-26T11:12:16.709Z,3.17
2023-04-26T11:14:46.972Z,2.30
2023-04-26T11:17:15.149Z,2.40
2023-04-26T11:19:42.675Z,2.53
2023-04-26T11:22:11.133Z,2.23
2023-04-26T11:24:41.861Z,2.07
2023-04-26T11:27:10.465Z,2.33
2023-04-26T11:29:38.945Z,1.90
2023-04-26T11:32:11.158Z,2.20
2023-04-26T11:34:54.483Z,1.70
2023-04-26T11:37:23.319Z,2.15
2023-04-26T11:39:51.633Z,2.30
2023-04-26T11:42:26.172Z,2.03
2023-04-26T11:44:56.645Z,2.27
2023-04-26T11:47:26.220Z,2.10
2023-04-26T11:49:57.457Z,2.13
2023-04-26T11:52:25.039Z,2.10
2023-04-26T11:55:04.170Z,2.80
2023-04-26T11:57:35.178Z,4.53
2023-04-26T12:00:14.539Z,2.60
2023-04-26T12:02:49.417Z,3.03
2023-04-26T12:05:35.422Z,2.33
2023-04-26T12:08:03.387Z,2.20
2023-04-26T12:10:36.256Z,2.70
2023-04-26T12:13:04.192Z,2.33
2023-04-26T12:15:35.070Z,1.97
2023-04-26T12:18:11.600Z,2.60
2023-04-26T12:20:42.564Z,1.77
2023-04-26T12:23:13.273Z,2.27
2023-04-26T12:25:42.423Z,2.17
2023-04-26T12:28:14.013Z,2.58
2023-04-26T12:30:41.993Z,1.90
2023-04-26T12:33:16.996Z,2.30
2023-04-26T12:35:46.979Z,2.10
2023-04-26T12:38:16.040Z,2.40
2023-04-26T12:40:46.846Z,1.70
2023-04-26T12:43:16.109Z,2.63
2023-04-26T12:45:43.572Z,2.03
2023-04-26T12:50:39.577Z,2.30
2023-04-26T12:53:06.952Z,3.30
2023-04-26T12:55:34.381Z,3.57
2023-04-26T12:58:02.222Z,3.80
2023-04-26T13:00:29.852Z,2.70
2023-04-26T13:02:57.494Z,2.60
2023-04-26T13:05:25.710Z,2.20
2023-04-26T13:07:53.267Z,3.07
2023-04-26T13:10:20.947Z,3.07
2023-04-26T13:12:48.795Z,3.87
2023-04-26T13:15:17.796Z,3.10
2023-04-26T13:20:14.076Z,6.68
2023-04-26T13:22:43.495Z,3.73
2023-04-26T13:25:13.298Z,5.67
2023-04-26T13:27:41.362Z,4.73
2023-04-26T13:30:09.512Z,4.00
2023-04-26T13:32:37.006Z,2.50
2023-04-26T13:35:05.135Z,2.70
2023-04-26T13:37:32.831Z,3.17
2023-04-26T13:40:00.569Z,3.63
2023-04-26T13:42:28.338Z,15.80
2023-04-26T13:44:55.956Z,11.67
2023-04-26T13:47:23.408Z,3.33
2023-04-26T13:49:51.366Z,6.30
2023-04-26T13:52:18.822Z,5.33
2023-04-26T13:54:46.136Z,4.63
2023-04-26T13:57:13.933Z,4.53
2023-04-26T13:59:41.438Z,5.90
2023-04-26T14:02:09.437Z,5.07
2023-04-26T14:04:37.545Z,2.80
2023-04-26T14:07:05.799Z,7.03
2023-04-26T14:09:33.589Z,3.80
2023-04-26T14:14:34.790Z,5.07
2023-04-26T14:17:02.506Z,3.00
2023-04-26T14:19:29.890Z,3.53
2023-04-26T14:21:57.368Z,4.90
2023-04-26T14:24:25.271Z,4.50
2023-04-26T14:26:52.630Z,4.10
2023-04-26T14:29:20.150Z,3.33
2023-04-26T14:31:47.968Z,4.30
2023-04-26T14:34:15.536Z,4.73
2023-04-26T14:36:43.200Z,5.20
2023-04-26T14:39:11.070Z,4.93
2023-04-26T14:41:38.489Z,6.17
2023-04-26T14:44:06.099Z,4.90
2023-04-26T14:46:34.068Z,6.17
2023-04-26T14:49:01.438Z,6.73
2023-04-26T14:51:28.954Z,5.50
2023-04-26T14:53:56.778Z,6.17
2023-04-26T14:56:24.158Z,4.47
2023-04-26T14:58:51.537Z,5.10
2023-04-26T15:01:19.373Z,7.73
2023-04-26T15:03:47.035Z,5.83
2023-04-26T15:06:14.705Z,5.20
2023-04-26T15:08:42.497Z,7.10
2023-04-26T15:11:09.933Z,5.13
2023-04-26T15:13:37.476Z,7.33
2023-04-26T15:16:07.965Z,5.90
2023-04-26T15:18:35.694Z,4.97
2023-04-26T15:21:03.118Z,6.73
2023-04-26T15:23:31.324Z,6.33
2023-04-26T15:26:03.278Z,7.70
2023-04-26T15:28:31.308Z,7.97
2023-04-26T15:31:07.981Z,6.80
2023-04-26T15:33:37.800Z,13.48
2023-04-26T15:36:05.568Z,8.70
2023-04-26T15:38:36.444Z,10.03
2023-04-26T15:41:04.593Z,8.20
2023-04-26T15:43:32.228Z,8.97
2023-04-26T15:45:59.632Z,7.43
2023-04-26T15:48:27.514Z,8.27
2023-04-26T15:50:57.022Z,12.10
2023-04-26T15:53:24.799Z,8.20
2023-04-26T15:55:52.945Z,7.47
2023-04-26T15:58:20.311Z,8.07
2023-04-26T16:00:47.845Z,6.00
2023-04-26T16:03:16.038Z,5.30
2023-04-26T16:05:43.666Z,6.57
2023-04-26T16:08:11.059Z,7.50
2023-04-26T16:10:39.201Z,8.27
2023-04-26T16:13:06.569Z,6.23
2023-04-26T16:15:33.896Z,6.67
2023-04-26T16:18:01.867Z,7.30
2023-04-26T16:20:29.267Z,6.27
2023-04-26T16:22:56.705Z,6.90
2023-04-26T16:25:24.518Z,7.20
2023-04-26T16:27:51.905Z,7.07
2023-04-26T16:30:19.350Z,6.87
2023-04-26T16:32:47.430Z,8.00
2023-04-26T16:35:15.297Z,8.57
2023-04-26T16:37:44.547Z,8.43
2023-04-26T16:40:13.653Z,8.27
2023-04-26T16:42:43.545Z,6.97
2023-04-26T16:45:15.438Z,6.60
2023-04-26T16:47:44.317Z,6.80
2023-04-26T16:50:11.942Z,6.73
2023-04-26T16:52:39.322Z,6.43
2023-04-26T16:55:08.812Z,8.17
2023-04-26T16:57:36.150Z,7.03
2023-04-26T17:00:07.647Z,7.40
2023-04-26T17:02:36.424Z,6.83
2023-04-26T17:05:04.082Z,6.90
2023-04-26T17:07:31.605Z,7.33
2023-04-26T17:09:59.378Z,6.50
2023-04-26T17:12:26.916Z,7.20
2023-04-26T17:14:54.549Z,7.17
2023-04-26T17:17:22.279Z,6.83
2023-04-26T17:19:49.741Z,7.43
2023-04-26T17:22:17.239Z,6.50
2023-04-26T17:24:45.000Z,12.43
2023-04-26T17:27:12.368Z,19.57
2023-04-26T17:29:40.073Z,10.83
2023-04-26T17:32:07.816Z,23.87
2023-04-26T17:34:35.795Z,8.63
2023-04-26T17:37:03.870Z,16.60
2023-04-26T17:39:32.404Z,10.30
2023-04-26T17:41:59.792Z,15.67
2023-04-26T17:44:27.611Z,12.53
2023-04-26T17:46:55.591Z,7.40
2023-04-26T17:49:28.148Z,8.80
2023-04-26T17:51:58.331Z,13.30
2023-04-26T17:56:57.176Z,12.27
2023-04-26T17:59:25.438Z,10.27
2023-04-26T18:01:53.453Z,15.53
2023-04-26T18:04:22.228Z,12.07
2023-04-26T18:06:50.223Z,13.70
2023-04-26T18:09:18.491Z,17.27
2023-04-26T18:11:48.175Z,9.95
2023-04-26T18:14:15.984Z,11.32
2023-04-26T18:16:43.731Z,8.93
2023-04-26T18:19:11.553Z,8.73
2023-04-26T18:21:39.436Z,7.70
2023-04-26T18:24:07.313Z,8.57
2023-04-26T18:26:35.346Z,7.67
2023-04-26T18:29:03.951Z,6.07
2023-04-26T18:31:33.774Z,8.02
2023-04-26T18:34:03.705Z,6.43
2023-04-26T18:36:32.353Z,7.17
2023-04-26T18:39:01.180Z,7.15
2023-04-26T18:41:29.150Z,8.25
2023-04-26T18:43:56.663Z,7.47
2023-04-26T18:46:24.170Z,7.83
2023-04-26T18:48:52.079Z,7.67
2023-04-26T18:51:20.004Z,8.20
2023-04-26T18:53:47.472Z,9.83
2023-04-26T18:56:15.283Z,10.27
2023-04-26T18:58:42.653Z,7.87
2023-04-26T19:01:10.067Z,7.50
2023-04-26T19:03:37.930Z,7.33
2023-04-26T19:06:10.545Z,7.00
2023-04-26T19:08:38.340Z,7.07
2023-04-26T19:11:09.090Z,6.82
2023-04-26T19:13:36.614Z,7.23
2023-04-26T19:16:04.854Z,6.50
2023-04-26T19:18:32.330Z,7.83
2023-04-26T19:21:10.264Z,6.33
2023-04-26T19:23:38.352Z,6.65
2023-04-26T19:26:12.287Z,6.40
2023-04-26T19:28:41.086Z,6.50
2023-04-26T19:31:08.564Z,5.05
2023-04-26T19:33:37.221Z,5.93
2023-04-26T19:36:05.106Z,7.28
2023-04-26T19:38:32.694Z,6.27
2023-04-26T19:41:01.509Z,6.33
2023-04-26T19:43:29.498Z,6.03
2023-04-26T19:45:57.110Z,6.53
2023-04-26T19:48:24.753Z,5.93
2023-04-26T19:50:52.526Z,5.93
2023-04-26T19:53:20.047Z,7.03
2023-04-26T19:55:47.484Z,6.80
2023-04-26T19:58:15.273Z,7.07
2023-04-26T20:00:43.934Z,8.50
2023-04-26T20:03:11.898Z,10.68
2023-04-26T20:05:39.565Z,6.17
2023-04-26T20:08:06.886Z,6.87
2023-04-26T20:10:34.725Z,6.83
2023-04-26T20:13:02.981Z,8.33
2023-04-26T20:15:32.948Z,7.75
2023-04-26T20:18:02.568Z,5.70
2023-04-26T20:20:30.037Z,5.82
2023-04-26T20:22:57.422Z,5.13
2023-04-26T20:25:25.327Z,5.57
2023-04-26T20:27:52.955Z,6.37
2023-04-26T20:30:20.604Z,5.53
2023-04-26T20:32:48.912Z,6.73
2023-04-26T20:35:17.282Z,5.20
2023-04-26T20:37:44.676Z,6.75
2023-04-26T20:40:12.524Z,6.30
2023-04-26T20:42:40.019Z,7.80
2023-04-26T20:45:08.076Z,7.07
2023-04-26T20:47:37.234Z,6.80
2023-04-26T20:50:05.560Z,7.47
2023-04-26T20:52:32.983Z,6.83
2023-04-26T20:55:00.861Z,6.77
2023-04-26T20:57:28.403Z,6.57
2023-04-26T20:59:55.996Z,5.73
2023-04-26T21:02:23.985Z,5.97
2023-04-26T21:04:51.700Z,7.17
2023-04-26T21:07:19.280Z,6.07
2023-04-26T21:09:47.065Z,7.77
2023-04-26T21:12:14.319Z,6.63
2023-04-26T21:14:41.847Z,6.60
2023-04-26T21:17:09.641Z,6.70
2023-04-26T21:19:37.031Z,5.97
2023-04-26T21:22:04.534Z,6.53
2023-04-26T21:24:32.499Z,6.40
2023-04-26T21:26:59.871Z,6.10
2023-04-26T21:29:27.155Z,7.20
2023-04-26T21:31:54.918Z,5.30
2023-04-26T21:34:22.445Z,6.73
2023-04-26T21:36:50.755Z,7.07
2023-04-26T21:39:18.567Z,6.70
2023-04-26T21:41:46.035Z,5.80
2023-04-26T21:44:13.461Z,6.13
2023-04-26T21:46:41.341Z,5.67
2023-04-26T21:49:08.848Z,5.53
2023-04-26T21:51:36.450Z,5.93
2023-04-26T21:54:04.188Z,6.00
2023-04-26T21:56:31.453Z,5.30
2023-04-26T21:58:59.051Z,7.20
2023-04-26T22:01:27.066Z,7.07
2023-04-26T22:03:55.131Z,5.20
2023-04-26T22:06:22.637Z,5.93
2023-04-26T22:08:50.100Z,6.07
2023-04-26T22:11:17.736Z,5.33
2023-04-26T22:13:45.116Z,5.73
2023-04-26T22:16:12.377Z,5.73
2023-04-26T22:18:40.158Z,5.47
2023-04-26T22:21:07.489Z,6.40
2023-04-26T22:23:34.906Z,4.73
2023-04-26T22:26:02.724Z,5.20
2023-04-26T22:28:30.127Z,5.37
2023-04-26T22:30:57.484Z,4.73
2023-04-26T22:33:25.125Z,4.33
2023-04-26T22:35:57.748Z,5.97
2023-04-26T22:38:25.690Z,4.43
2023-04-26T22:40:54.594Z,4.27
2023-04-26T22:43:24.007Z,4.77
2023-04-26T22:45:51.937Z,4.20
2023-04-26T22:48:19.347Z,5.03
2023-04-26T22:50:50.085Z,4.23
2023-04-26T22:53:18.000Z,4.43
2023-04-26T22:55:45.571Z,4.43
2023-04-26T22:58:12.978Z,4.70
2023-04-26T23:00:40.660Z,4.50
2023-04-26T23:03:08.009Z,4.13
2023-04-26T23:05:35.545Z,4.37
2023-04-26T23:08:03.321Z,4.30
2023-04-26T23:10:31.025Z,4.67
2023-04-26T23:12:58.662Z,4.17
2023-04-26T23:15:27.240Z,4.60
2023-04-26T23:17:54.634Z,4.20
2023-04-26T23:20:22.950Z,4.40
2023-04-26T23:22:50.959Z,4.80
2023-04-26T23:25:20.108Z,4.10
2023-04-26T23:27:47.583Z,4.10
2023-04-26T23:30:15.731Z,3.77
2023-04-26T23:32:43.076Z,4.17
2023-04-26T23:35:10.719Z,4.13
2023-04-26T23:37:38.557Z,3.23
2023-04-26T23:40:06.939Z,3.90
2023-04-26T23:42:34.346Z,4.22
2023-04-26T23:45:02.160Z,4.03
2023-04-26T23:47:31.145Z,3.75
2023-04-26T23:49:58.604Z,3.90
2023-04-26T23:52:26.230Z,3.93
2023-04-26T23:54:53.726Z,3.73
2023-04-26T23:57:21.673Z,3.67
2023-04-26T23:59:49.434Z,4.23
